CST,Max TemperatureF,Mean TemperatureF,Min TemperatureF,Max Dew PointF,MeanDew PointF,Min DewpointF,Max Humidity, Mean Humidity, Min Humidity, Max Sea Level PressureIn, Mean Sea Level PressureIn, Min Sea Level PressureIn, Max VisibilityMiles, Mean VisibilityMiles, Min VisibilityMiles, Max Wind SpeedMPH, Mean Wind SpeedMPH, Max Gust SpeedMPH,PrecipitationIn, CloudCover, Events, WindDirDegrees
2011-12-1,42,35,27,29,24,18,82,63,43,30.53,30.24,29.81,10,10,7,40,25,48,0.00,5,,8
2011-12-2,37,31,25,28,19,12,82,67,52,30.49,30.20,29.99,10,10,10,20,13,24,0.00,8,,191
2011-12-3,34,27,19,31,27,17,92,77,61,30.24,29.98,29.83,10,6,1,33,15,41,0.08,7,Rain-Snow,283
2011-12-4,31,22,13,25,20,9,92,81,69,30.30,30.19,30.10,10,7,2,22,9,28,T,6,Snow,13
2011-12-5,26,17,7,20,11,2,88,81,73,30.51,30.37,30.24,10,2,0,29,19,37,0.03,7,Fog-Snow,15
2011-12-6,20,10,-1,12,2,-7,87,77,67,30.48,30.37,30.18,10,10,10,15,8,17,0.00,0,,275
2011-12-7,48,29,10,30,17,2,85,57,29,30.36,30.24,30.12,10,10,10,13,8,16,0.00,0,,257
2011-12-8,39,30,20,27,23,17,88,74,59,30.22,30.10,30.00,10,10,10,22,9,25,0.00,0,,353
2011-12-9,30,23,16,25,21,14,100,89,77,30.49,30.37,30.22,10,4,0,10,6,13,0.00,4,Fog,344
2011-12-10,35,28,20,30,24,17,96,86,75,30.50,30.39,30.27,7,3,0,21,12,24,0.00,7,Fog,219
2011-12-11,42,36,30,33,30,27,96,83,70,30.28,30.11,29.98,10,7,2,31,18,37,0.00,7,,208
2011-12-12,49,42,35,41,36,33,92,74,56,30.13,30.06,30.00,10,6,0,22,10,25,0.00,6,Fog,199
2011-12-13,47,44,41,45,42,39,100,93,86,30.11,30.04,29.93,10,3,0,15,10,18,0.19,8,Fog-Rain,182
2011-12-14,57,45,33,43,39,29,100,70,40,30.06,29.88,29.78,10,5,0,30,14,36,0.01,3,Fog-Rain,201
2011-12-15,44,37,29,30,26,23,82,64,45,30.35,30.24,30.08,10,10,9,15,9,20,0.00,3,,49
2011-12-16,48,36,23,32,26,20,92,69,46,30.45,30.38,30.30,10,10,9,21,8,25,0.00,0,,238
2011-12-17,53,37,21,35,28,18,89,68,46,30.48,30.39,30.27,10,10,9,20,9,24,0.00,0,,236
2011-12-18,58,47,35,41,38,33,92,72,51,30.24,30.05,29.85,10,9,6,25,15,30,0.00,3,,213
2011-12-19,42,34,26,41,33,23,100,93,85,29.97,29.83,29.75,6,2,0,47,24,55,0.62,7,Fog-Rain-Snow,357
2011-12-20,34,26,17,26,21,15,92,82,72,30.10,29.99,29.92,10,6,0,39,18,49,T,6,Fog-Snow,344
2011-12-21,39,28,16,25,19,13,84,72,59,29.93,29.85,29.74,10,10,10,15,6,20,0.00,0,,290
2011-12-22,31,24,16,28,23,12,92,82,72,30.51,30.24,29.91,10,7,1,33,21,39,T,7,Rain-Snow,19
2011-12-23,31,21,10,19,13,6,91,75,58,30.54,30.49,30.41,10,10,10,12,7,15,0.00,0,,308
2011-12-24,39,26,13,20,11,2,74,59,44,30.53,30.47,30.41,10,10,10,15,9,18,0.00,0,,341
2011-12-25,35,29,22,25,17,9,88,68,47,30.54,30.44,30.34,10,10,9,21,10,25,0.00,6,,6
2011-12-26,39,26,13,27,19,10,88,72,56,30.33,30.17,29.98,10,10,10,18,8,25,0.00,0,,282
2011-12-27,43,32,21,31,22,14,88,71,54,30.31,30.18,30.00,10,10,10,17,10,20,0.00,0,,252
2011-12-28,47,36,25,31,24,17,88,66,44,30.19,30.09,30.01,10,10,10,22,10,26,0.00,0,,287
2011-12-29,55,41,27,37,30,24,85,69,53,30.00,29.90,29.78,10,10,10,16,9,21,0.00,0,,270
2011-12-30,54,43,31,33,30,28,89,65,41,30.15,30.01,29.87,10,10,10,30,13,36,0.00,0,,238
2011-12-31,66,49,31,35,28,20,89,59,28,30.38,29.96,29.75,10,10,10,37,16,44,0.00,0,,284